Time;durP1;ratioP1;P1;durP2;ratioP2;P2;SDS_P1;SDS_P2;PMS_P1;PMS_P2;Temp;Humidity;BMP_temperature;BMP_pressure;BME280_temperature;BME280_humidity;BME280_pressure;Samples;Min_cycle;Max_cycle;Signal;HPM_P1;HPM_P2
2023/09/13 00:01:09;;;;;;;27.67;7.40;;;28.40;57.20;;;;;;5054604;28;20212;-70
2023/09/13 00:03:36;;;;;;;42.37;9.10;;;28.40;57.20;;;;;;5051370;28;20279;-69
2023/09/13 00:06:03;;;;;;;30.27;7.93;;;28.40;57.20;;;;;;5068961;28;20195;-72
2023/09/13 00:08:30;;;;;;;39.07;8.53;;;28.40;57.20;;;;;;5067625;28;20322;-75
2023/09/13 00:11:02;;;;;;;50.20;9.87;;;28.40;57.20;;;;;;5066062;28;20210;-74
2023/09/13 00:13:32;;;;;;;33.13;8.13;;;28.40;57.20;;;;;;5051435;28;20667;-70
2023/09/13 00:15:59;;;;;;;33.53;8.70;;;28.40;57.20;;;;;;5049775;28;20204;-75
2023/09/13 00:18:26;;;;;;;64.07;10.83;;;28.40;57.20;;;;;;5056956;28;20296;-71
2023/09/13 00:20:53;;;;;;;45.23;9.33;;;28.30;57.10;;;;;;5053368;28;20211;-70
2023/09/13 00:23:21;;;;;;;26.13;7.53;;;28.30;57.10;;;;;;5065769;28;20207;-70
2023/09/13 00:25:47;;;;;;;45.33;9.63;;;28.30;57.10;;;;;;5064869;28;20900;-71
2023/09/13 00:28:14;;;;;;;29.73;7.80;;;28.30;57.70;;;;;;5058097;28;20234;-72
2023/09/13 00:30:43;;;;;;;58.10;10.57;;;28.30;57.10;;;;;;5060434;28;20315;-70
2023/09/13 00:33:10;;;;;;;27.07;7.80;;;28.30;57.10;;;;;;5064304;28;20238;-71
2023/09/13 00:35:37;;;;;;;74.13;12.03;;;28.30;57.10;;;;;;5049689;28;20202;-72
2023/09/13 00:38:04;;;;;;;30.57;8.83;;;28.30;57.10;;;;;;5062378;28;20196;-70
2023/09/13 00:40:31;;;;;;;27.13;7.87;;;28.30;57.10;;;;;;5049768;28;20291;-70
2023/09/13 00:42:59;;;;;;;37.33;8.60;;;28.30;57.10;;;;;;5068100;28;20294;-71
2023/09/13 00:45:26;;;;;;;38.27;8.87;;;28.20;57.10;;;;;;5050727;28;20230;-69
2023/09/13 00:47:54;;;;;;;32.63;8.47;;;28.20;57.10;;;;;;5059275;28;20282;-70
2023/09/13 00:50:21;;;;;;;29.93;8.20;;;28.20;57.20;;;;;;5055391;28;20228;-71
2023/09/13 00:52:49;;;;;;;31.30;8.67;;;28.20;57.20;;;;;;5064702;28;20202;-70
2023/09/13 00:55:18;;;;;;;27.67;8.23;;;28.20;57.20;;;;;;5066900;28;20207;-70
2023/09/13 00:57:45;;;;;;;25.73;8.03;;;28.20;57.10;;;;;;5048447;28;20304;-71
2023/09/13 01:00:14;;;;;;;28.73;9.00;;;28.20;57.70;;;;;;5050049;28;20204;-69
2023/09/13 01:02:42;;;;;;;29.20;8.03;;;28.20;57.20;;;;;;5050628;28;20287;-69
2023/09/13 01:05:12;;;;;;;28.17;8.37;;;28.20;57.20;;;;;;5064454;28;20756;-70
2023/09/13 01:07:41;;;;;;;36.63;9.10;;;28.20;57.20;;;;;;5069770;28;20655;-70
2023/09/13 01:10:09;;;;;;;32.37;9.00;;;28.20;57.20;;;;;;5069145;28;20223;-70
2023/09/13 01:12:36;;;;;;;28.73;8.17;;;28.20;57.20;;;;;;5069048;28;20398;-73
2023/09/13 01:15:06;;;;;;;37.23;9.07;;;28.20;57.20;;;;;;5062482;28;20279;-70
2023/09/13 01:17:39;;;;;;;37.83;9.00;;;28.10;57.10;;;;;;5055482;28;20217;-69
2023/09/13 01:20:13;;;;;;;39.20;9.33;;;28.10;57.10;;;;;;5049338;28;20565;-70
2023/09/13 01:23:11;;;;;;;27.60;7.80;;;28.10;57.70;;;;;;5049804;28;20727;-69
2023/09/13 01:26:00;;;;;;;34.17;8.57;;;28.10;57.10;;;;;;5062005;28;20203;-70
2023/09/13 01:28:41;;;;;;;34.43;9.13;;;28.10;57.10;;;;;;5048991;28;20197;-70
2023/09/13 01:31:09;;;;;;;50.13;9.93;;;28.10;57.10;;;;;;5047764;28;20659;-70
2023/09/13 01:33:37;;;;;;;26.17;7.97;;;28.10;57.10;;;;;;5065715;28;20203;-69
2023/09/13 01:36:04;;;;;;;32.07;9.07;;;28.10;57.10;;;;;;5061762;28;20224;-70
2023/09/13 01:38:32;;;;;;;36.10;9.77;;;28.00;57.10;;;;;;5056228;28;20610;-73
2023/09/13 01:41:05;;;;;;;32.03;9.03;;;28.00;57.10;;;;;;5068328;28;20203;-70
2023/09/13 01:43:33;;;;;;;44.57;10.03;;;28.00;57.00;;;;;;5056524;28;20203;-71
2023/09/13 01:46:03;;;;;;;74.30;12.77;;;28.00;57.00;;;;;;5046896;28;20295;-72
2023/09/13 01:48:31;;;;;;;27.63;8.17;;;28.00;57.10;;;;;;5062261;28;20207;-72
2023/09/13 01:50:59;;;;;;;40.73;9.37;;;28.00;57.00;;;;;;5051986;28;20371;-75
2023/09/13 01:53:26;;;;;;;29.07;8.50;;;28.00;57.00;;;;;;5051620;28;20287;-76
2023/09/13 01:55:53;;;;;;;51.83;10.60;;;28.00;57.10;;;;;;5057445;28;20238;-76
2023/09/13 01:58:20;;;;;;;27.07;7.67;;;28.00;57.10;;;;;;5051530;28;20204;-73
2023/09/13 02:00:47;;;;;;;57.40;10.50;;;28.00;57.00;;;;;;5050005;28;20203;-76
2023/09/13 02:03:15;;;;;;;33.77;8.77;;;28.00;57.00;;;;;;5051865;28;20236;-76
2023/09/13 02:05:42;;;;;;;23.90;8.37;;;28.00;57.00;;;;;;5056313;28;20209;-75
2023/09/13 02:08:09;;;;;;;46.27;9.70;;;28.00;57.00;;;;;;5066378;28;20207;-76
2023/09/13 02:10:36;;;;;;;32.53;9.03;;;28.00;57.10;;;;;;5054876;28;20341;-75
2023/09/13 02:13:04;;;;;;;25.40;7.30;;;28.00;57.10;;;;;;5060877;28;20191;-76
2023/09/13 02:15:31;;;;;;;29.20;7.83;;;27.90;57.00;;;;;;5056160;28;20201;-74
2023/09/13 02:17:58;;;;;;;54.77;10.37;;;27.90;57.00;;;;;;5051084;28;20200;-74
2023/09/13 02:20:26;;;;;;;33.53;7.90;;;27.90;57.00;;;;;;5051965;28;20310;-76
2023/09/13 02:22:53;;;;;;;28.50;7.97;;;27.90;57.00;;;;;;5058892;28;20295;-75
2023/09/13 02:25:20;;;;;;;34.00;8.33;;;27.90;57.00;;;;;;5058971;28;20304;-79
2023/09/13 02:27:47;;;;;;;40.10;8.40;;;27.90;57.00;;;;;;5049294;28;20393;-76
2023/09/13 02:30:14;;;;;;;32.63;8.07;;;27.90;57.00;;;;;;5068201;28;20230;-77
2023/09/13 02:32:41;;;;;;;49.77;9.37;;;27.90;57.00;;;;;;5065773;28;20290;-76
2023/09/13 02:35:09;;;;;;;35.17;7.77;;;27.90;57.00;;;;;;5055696;28;20200;-75
2023/09/13 02:37:38;;;;;;;28.87;7.97;;;27.90;57.00;;;;;;5057195;28;20196;-72
2023/09/13 02:40:06;;;;;;;31.23;8.23;;;27.90;57.00;;;;;;5059382;28;20568;-70
2023/09/13 02:42:33;;;;;;;29.27;7.50;;;27.90;57.00;;;;;;5062619;28;20279;-70
2023/09/13 02:45:00;;;;;;;30.53;7.80;;;27.90;57.00;;;;;;5062297;28;20191;-74
2023/09/13 02:47:27;;;;;;;29.50;7.57;;;27.90;57.10;;;;;;5054625;28;20249;-71
2023/09/13 02:49:54;;;;;;;33.93;8.60;;;27.90;57.10;;;;;;5060438;28;20310;-70
2023/09/13 02:52:29;;;;;;;32.27;7.87;;;27.90;57.10;;;;;;5067239;28;20315;-72
2023/09/13 02:54:58;;;;;;;28.87;7.43;;;27.90;57.10;;;;;;5068113;28;20309;-70
2023/09/13 02:57:25;;;;;;;39.07;7.87;;;27.80;57.10;;;;;;5067279;28;20286;-70
2023/09/13 02:59:52;;;;;;;32.33;7.70;;;27.90;57.20;;;;;;5065559;28;20199;-72
2023/09/13 03:02:20;;;;;;;33.63;7.37;;;27.80;57.10;;;;;;5068123;28;20286;-70
2023/09/13 03:04:51;;;;;;;38.13;8.33;;;27.80;57.10;;;;;;5050467;28;20200;-70
2023/09/13 03:07:18;;;;;;;29.67;7.53;;;27.80;57.10;;;;;;5048289;28;20203;-70
2023/09/13 03:09:45;;;;;;;28.77;7.37;;;27.80;57.20;;;;;;5050019;28;20672;-70
2023/09/13 03:12:14;;;;;;;30.93;7.17;;;27.80;57.20;;;;;;5048584;28;20215;-69
2023/09/13 03:14:41;;;;;;;25.53;7.10;;;27.80;57.20;;;;;;5054930;28;20207;-70
2023/09/13 03:17:11;;;;;;;24.30;6.50;;;27.80;57.20;;;;;;5068925;28;20985;-69
2023/09/13 03:19:38;;;;;;;37.73;8.40;;;27.80;57.20;;;;;;5056949;28;20687;-69
2023/09/13 03:22:05;;;;;;;37.20;8.00;;;27.70;57.20;;;;;;5066677;28;20200;-70
2023/09/13 03:24:32;;;;;;;29.80;7.57;;;27.80;57.20;;;;;;5047571;28;20279;-70
2023/09/13 03:26:59;;;;;;;22.97;6.83;;;27.80;57.30;;;;;;5057082;28;20279;-70
2023/09/13 03:29:27;;;;;;;35.80;8.33;;;27.80;57.30;;;;;;5068221;28;20303;-70
2023/09/13 03:31:54;;;;;;;26.90;7.20;;;27.80;57.30;;;;;;5055384;28;20315;-71
2023/09/13 03:34:24;;;;;;;40.40;8.43;;;27.80;57.30;;;;;;5046469;28;20288;-70
2023/09/13 03:36:51;;;;;;;38.10;8.03;;;27.80;57.30;;;;;;5056575;28;20287;-70
2023/09/13 03:39:18;;;;;;;33.07;7.53;;;27.80;57.30;;;;;;5066905;28;20288;-70
2023/09/13 03:41:45;;;;;;;32.53;7.43;;;27.80;57.30;;;;;;5053115;28;20287;-69
2023/09/13 03:44:12;;;;;;;24.73;6.57;;;27.80;57.30;;;;;;5057585;28;20294;-70
2023/09/13 03:46:40;;;;;;;26.20;6.47;;;27.80;57.30;;;;;;5048088;28;20246;-70
2023/09/13 03:49:07;;;;;;;29.40;6.90;;;27.80;57.30;;;;;;5054841;28;20286;-70
2023/09/13 03:51:35;;;;;;;30.40;6.67;;;27.80;57.90;;;;;;5052437;28;20259;-70
2023/09/13 03:54:02;;;;;;;62.73;9.60;;;27.80;57.90;;;;;;5046861;28;20196;-69
2023/09/13 03:56:29;;;;;;;30.17;7.13;;;27.80;57.30;;;;;;5050690;28;20291;-73
2023/09/13 03:58:56;;;;;;;27.67;6.27;;;27.80;57.30;;;;;;5050844;28;20214;-69
2023/09/13 04:01:24;;;;;;;35.47;7.17;;;27.80;57.40;;;;;;5051757;28;20199;-70
2023/09/13 04:03:52;;;;;;;27.90;6.30;;;27.80;57.40;;;;;;5060267;28;20224;-71
2023/09/13 04:06:19;;;;;;;44.63;8.07;;;27.80;57.40;;;;;;5054855;28;20204;-69
2023/09/13 04:08:46;;;;;;;30.77;6.43;;;27.80;58.00;;;;;;5050758;28;20241;-70
2023/09/13 04:11:13;;;;;;;27.97;6.20;;;27.80;57.40;;;;;;5062213;28;20223;-70
2023/09/13 04:13:40;;;;;;;26.50;5.93;;;27.80;57.40;;;;;;5056916;28;20207;-70
2023/09/13 04:16:08;;;;;;;26.37;6.13;;;27.80;57.40;;;;;;5051332;28;20531;-69
2023/09/13 04:18:35;;;;;;;35.20;7.03;;;27.80;57.40;;;;;;5056837;28;20225;-69
2023/09/13 04:21:03;;;;;;;46.90;7.50;;;27.80;57.40;;;;;;5068255;28;20200;-71
2023/09/13 04:23:30;;;;;;;25.87;5.70;;;27.80;57.40;;;;;;5063666;28;20278;-71
2023/09/13 04:25:57;;;;;;;38.27;7.10;;;27.80;57.40;;;;;;5052087;28;20253;-70
2023/09/13 04:28:24;;;;;;;38.00;7.17;;;27.80;57.50;;;;;;5050569;28;20207;-70
2023/09/13 04:30:51;;;;;;;31.00;6.33;;;27.80;57.50;;;;;;5057648;28;20362;-70
2023/09/13 04:33:20;;;;;;;26.37;6.13;;;27.80;57.50;;;;;;5053451;28;20211;-69
2023/09/13 04:35:47;;;;;;;31.17;6.10;;;27.80;57.40;;;;;;5053747;28;20207;-70
2023/09/13 04:38:15;;;;;;;29.20;5.53;;;27.80;57.40;;;;;;5050446;28;20194;-76
2023/09/13 04:40:43;;;;;;;25.53;5.37;;;27.80;57.50;;;;;;5054227;28;20203;-72
2023/09/13 04:43:23;;;;;;;28.73;5.67;;;27.80;58.00;;;;;;5058945;28;20294;-71
2023/09/13 04:45:50;;;;;;;33.77;6.67;;;27.80;57.50;;;;;;5049720;28;20212;-74
2023/09/13 04:48:17;;;;;;;33.50;6.43;;;27.80;57.50;;;;;;5050192;28;20911;-70
2023/09/13 04:50:44;;;;;;;29.30;5.87;;;27.80;57.50;;;;;;5059253;28;20231;-72
2023/09/13 04:53:11;;;;;;;30.20;5.90;;;27.80;57.50;;;;;;5051837;28;20250;-73
2023/09/13 04:55:43;;;;;;;26.37;6.10;;;27.80;57.50;;;;;;5053541;28;20279;-76
2023/09/13 04:58:10;;;;;;;26.87;5.57;;;27.80;57.50;;;;;;5069501;28;20206;-77
2023/09/13 05:00:37;;;;;;;38.37;6.90;;;27.80;57.50;;;;;;5067836;28;20282;-76
2023/09/13 05:03:04;;;;;;;31.40;6.60;;;27.80;57.50;;;;;;5061001;28;20540;-75
2023/09/13 05:05:31;;;;;;;30.10;6.63;;;27.70;57.90;;;;;;5069496;28;20269;-70
2023/09/13 05:07:58;;;;;;;35.03;6.57;;;27.70;57.80;;;;;;5053136;28;20235;-72
2023/09/13 05:10:25;;;;;;;29.27;6.13;;;27.70;57.70;;;;;;5069610;28;20734;-77
2023/09/13 05:12:53;;;;;;;30.40;5.60;;;27.80;57.70;;;;;;5060459;28;20270;-76
2023/09/13 05:15:20;;;;;;;30.57;6.23;;;27.80;57.60;;;;;;5049589;28;20618;-76
2023/09/13 05:17:47;;;;;;;30.20;6.43;;;27.80;57.50;;;;;;5049705;28;20243;-74
2023/09/13 05:20:14;;;;;;;61.63;8.93;;;27.80;57.50;;;;;;5050978;28;20288;-76
2023/09/13 05:22:42;;;;;;;26.03;5.80;;;27.80;57.40;;;;;;5059118;28;20719;-70
2023/09/13 05:25:10;;;;;;;34.43;6.47;;;27.80;57.40;;;;;;5055624;28;20207;-74
2023/09/13 05:27:37;;;;;;;48.53;7.57;;;27.80;57.40;;;;;;5050318;28;21447;-71
2023/09/13 05:30:06;;;;;;;38.83;7.00;;;27.80;57.40;;;;;;5051136;28;20269;-71
2023/09/13 05:32:33;;;;;;;22.60;5.33;;;27.80;57.40;;;;;;5063140;28;20306;-73
2023/09/13 05:35:00;;;;;;;32.77;6.40;;;27.80;57.50;;;;;;5060303;28;20291;-73
2023/09/13 05:37:27;;;;;;;28.23;5.77;;;27.80;57.40;;;;;;5056027;28;20295;-71
2023/09/13 05:39:54;;;;;;;29.27;5.87;;;27.80;57.50;;;;;;5063969;28;20290;-71
2023/09/13 05:42:21;;;;;;;30.03;6.13;;;27.80;57.50;;;;;;5061026;28;20228;-73
2023/09/13 05:44:48;;;;;;;26.03;5.83;;;27.80;57.50;;;;;;5065686;28;20283;-70
2023/09/13 05:47:16;;;;;;;33.07;6.40;;;27.80;57.50;;;;;;5057953;28;20207;-72
2023/09/13 05:50:28;;;;;;;32.87;7.33;;;27.70;57.00;;;;;;5094462;27;20616;-71
2023/09/13 05:52:55;;;;;;;26.47;6.57;;;27.80;57.60;;;;;;5106724;28;20283;-71
2023/09/13 05:55:25;;;;;;;34.07;6.93;;;27.80;57.60;;;;;;5093160;28;20801;-71
2023/09/13 05:57:52;;;;;;;35.13;7.13;;;27.70;57.50;;;;;;5084604;28;20193;-70
2023/09/13 06:00:20;;;;;;;31.67;7.00;;;27.70;57.60;;;;;;5084293;28;20202;-72
2023/09/13 06:02:46;;;;;;;30.93;6.90;;;27.80;57.70;;;;;;5086041;28;20238;-73
2023/09/13 06:05:13;;;;;;;28.53;6.17;;;27.80;57.70;;;;;;5085892;28;20198;-70
2023/09/13 06:07:42;;;;;;;26.97;6.57;;;27.80;57.70;;;;;;5087550;28;20673;-69
2023/09/13 06:10:10;;;;;;;35.47;7.37;;;27.80;57.70;;;;;;5065958;28;20307;-75
2023/09/13 06:12:37;;;;;;;24.57;6.30;;;27.80;57.80;;;;;;5064885;28;20632;-71
2023/09/13 06:15:05;;;;;;;32.10;6.67;;;27.80;57.70;;;;;;5064772;28;20192;-74
2023/09/13 06:20:00;;;;;;;34.30;6.30;;;27.80;57.20;;;;;;5089077;27;20579;-75
2023/09/13 06:22:26;;;;;;;30.70;6.30;;;27.80;57.80;;;;;;5088090;28;20277;-76
2023/09/13 06:24:53;;;;;;;27.80;5.93;;;27.80;57.70;;;;;;5104752;28;20244;-76
2023/09/13 06:27:21;;;;;;;28.97;6.43;;;27.80;57.70;;;;;;5098197;28;20198;-76
2023/09/13 06:29:47;;;;;;;29.97;6.00;;;27.80;57.70;;;;;;5105198;28;20653;-79
2023/09/13 06:32:14;;;;;;;32.83;6.43;;;27.80;57.70;;;;;;5073735;28;20205;-79
2023/09/13 06:34:43;;;;;;;29.47;6.07;;;27.80;57.70;;;;;;5101393;28;20562;-79
2023/09/13 06:37:12;;;;;;;42.97;7.47;;;27.80;57.70;;;;;;5087216;28;20203;-79
2023/09/13 06:39:39;;;;;;;35.70;7.20;;;27.90;57.80;;;;;;5100321;28;20228;-79
2023/09/13 06:42:07;;;;;;;31.17;6.27;;;27.90;57.80;;;;;;5099011;28;20209;-78
2023/09/13 06:44:34;;;;;;;42.73;7.77;;;27.90;57.80;;;;;;5077471;28;20564;-79
2023/09/13 06:47:01;;;;;;;33.53;6.60;;;27.80;57.70;;;;;;5081130;28;20210;-78
2023/09/13 06:51:52;;;;;;;32.30;7.40;;;27.90;57.30;;;;;;5084672;27;20580;-72
2023/09/13 06:54:19;;;;;;;28.03;6.97;;;27.90;57.80;;;;;;5072151;28;20290;-72
2023/09/13 06:56:46;;;;;;;32.10;7.03;;;27.90;57.80;;;;;;5065908;28;20287;-76
2023/09/13 06:59:50;;;;;;;30.40;6.10;;;27.90;57.30;;;;;;5095553;27;20609;-76
2023/09/13 07:02:17;;;;;;;36.17;6.43;;;27.80;57.80;;;;;;5068360;28;20590;-78
2023/09/13 07:04:43;;;;;;;32.13;6.13;;;27.90;57.80;;;;;;5080168;28;20291;-75
2023/09/13 07:07:11;;;;;;;30.17;6.27;;;27.90;57.90;;;;;;5081960;28;20191;-79
2023/09/13 07:09:38;;;;;;;29.73;6.33;;;27.90;57.90;;;;;;5099725;28;20211;-78
2023/09/13 07:12:06;;;;;;;31.30;6.20;;;27.90;57.80;;;;;;5079027;28;20207;-76
2023/09/13 07:14:33;;;;;;;31.90;6.37;;;27.90;57.80;;;;;;5065493;28;20265;-74
2023/09/13 07:17:01;;;;;;;28.43;5.93;;;27.90;57.90;;;;;;5070232;28;20218;-77
2023/09/13 07:19:28;;;;;;;35.77;6.97;;;27.90;57.80;;;;;;5078466;28;20226;-77
2023/09/13 07:21:55;;;;;;;36.10;7.17;;;27.90;57.80;;;;;;5075023;28;20291;-75
2023/09/13 07:24:22;;;;;;;30.87;6.70;;;27.90;57.80;;;;;;5065080;28;20196;-79
2023/09/13 07:26:49;;;;;;;39.00;7.30;;;27.90;57.80;;;;;;5067546;28;20299;-78
2023/09/13 07:29:18;;;;;;;28.83;6.27;;;27.90;57.80;;;;;;5081454;28;20207;-79
2023/09/13 07:31:44;;;;;;;41.23;7.13;;;28.00;57.80;;;;;;5066086;28;20240;-78
2023/09/13 07:34:13;;;;;;;32.90;6.70;;;28.00;57.90;;;;;;5065117;28;20208;-76
2023/09/13 07:36:40;;;;;;;44.47;7.47;;;28.00;57.90;;;;;;5065021;28;20199;-78
2023/09/13 07:39:09;;;;;;;24.93;5.87;;;28.00;57.90;;;;;;5069986;28;20226;-79
2023/09/13 07:41:36;;;;;;;22.53;5.40;;;28.00;57.80;;;;;;5083780;28;20203;-77
2023/09/13 07:44:03;;;;;;;41.33;7.47;;;28.00;57.80;;;;;;5083403;28;20302;-79
2023/09/13 07:46:30;;;;;;;26.93;6.57;;;28.00;57.80;;;;;;5074686;28;20199;-79
2023/09/13 07:48:57;;;;;;;27.87;6.07;;;28.00;57.80;;;;;;5081197;28;20286;-78
2023/09/13 07:51:25;;;;;;;24.90;5.83;;;28.00;57.80;;;;;;5081968;28;20301;-79
2023/09/13 07:53:53;;;;;;;32.10;7.13;;;28.00;57.80;;;;;;5064461;28;20287;-79
2023/09/13 07:56:20;;;;;;;28.80;6.53;;;28.00;57.80;;;;;;5073801;28;20195;-79
2023/09/13 07:58:47;;;;;;;31.47;6.73;;;28.00;57.80;;;;;;5069074;28;20678;-79
2023/09/13 08:01:15;;;;;;;46.90;8.23;;;28.10;57.90;;;;;;5066589;28;20204;-79
2023/09/13 08:03:42;;;;;;;30.10;6.57;;;28.10;57.90;;;;;;5070561;28;20211;-79
2023/09/13 08:06:08;;;;;;;30.80;6.50;;;28.10;57.90;;;;;;5067796;28;20282;-77
2023/09/13 08:08:37;;;;;;;27.37;6.60;;;28.10;57.90;;;;;;5083539;28;20291;-78
2023/09/13 08:11:04;;;;;;;27.90;6.23;;;28.10;57.90;;;;;;5070276;28;20199;-78
2023/09/13 08:13:31;;;;;;;26.57;5.83;;;28.10;57.90;;;;;;5052604;28;20208;-77
2023/09/13 08:15:58;;;;;;;29.73;6.30;;;28.10;57.90;;;;;;5050800;28;20291;-75
2023/09/13 08:18:25;;;;;;;26.93;6.07;;;28.20;58.60;;;;;;5051962;28;20227;-75
2023/09/13 08:20:52;;;;;;;23.00;5.53;;;28.20;58.00;;;;;;5050705;28;20308;-78
2023/09/13 08:23:19;;;;;;;18.83;5.13;;;28.20;58.00;;;;;;5052423;28;20202;-76
2023/09/13 08:25:47;;;;;;;40.07;7.03;;;28.20;58.00;;;;;;5050622;28;20277;-76
2023/09/13 08:28:14;;;;;;;36.00;7.17;;;28.20;58.00;;;;;;5050018;28;20211;-75
2023/09/13 08:30:41;;;;;;;17.07;5.33;;;28.20;58.00;;;;;;5055466;28;20706;-74
2023/09/13 08:33:10;;;;;;;28.80;5.83;;;28.30;58.10;;;;;;5070081;28;20209;-78
2023/09/13 08:35:37;;;;;;;25.40;6.17;;;28.20;58.00;;;;;;5054983;28;20207;-75
2023/09/13 08:38:04;;;;;;;38.33;6.83;;;28.30;58.10;;;;;;5063580;28;20234;-75
2023/09/13 08:40:31;;;;;;;25.57;6.00;;;28.30;58.10;;;;;;5065974;28;20233;-75
2023/09/13 08:43:00;;;;;;;25.37;5.90;;;28.30;58.10;;;;;;5058190;28;20647;-76
2023/09/13 08:45:28;;;;;;;34.23;6.47;;;28.40;58.20;;;;;;5051303;28;20311;-76
2023/09/13 08:48:01;;;;;;;33.07;7.13;;;28.40;58.10;;;;;;5057161;28;20711;-77
2023/09/13 08:50:28;;;;;;;25.40;6.10;;;28.40;58.10;;;;;;5063857;28;20319;-78
2023/09/13 08:52:59;;;;;;;28.43;6.10;;;28.50;58.00;;;;;;5063229;28;20198;-73
2023/09/13 08:55:56;;;;;;;20.33;6.17;;;28.50;57.50;;;;;;5066605;27;20546;-76
2023/09/13 08:58:24;;;;;;;19.47;6.03;;;28.50;57.90;;;;;;5065618;28;20203;-72
2023/09/13 09:00:53;;;;;;;27.77;6.43;;;28.50;57.70;;;;;;5065253;28;20188;-71
2023/09/13 09:04:50;;;;;;;17.17;5.13;;;28.60;57.00;;;;;;5085497;27;20614;-76
2023/09/13 09:07:19;;;;;;;35.60;6.73;;;28.60;57.50;;;;;;5053797;28;20833;-75
2023/09/13 09:09:47;;;;;;;25.37;5.60;;;28.70;57.50;;;;;;5061276;28;20291;-75
2023/09/13 09:12:17;;;;;;;23.37;5.27;;;28.60;57.40;;;;;;5060568;28;20239;-74
2023/09/13 09:14:46;;;;;;;25.70;6.07;;;28.70;58.10;;;;;;5052000;28;20196;-74
2023/09/13 09:17:16;;;;;;;22.53;5.93;;;28.60;57.40;;;;;;5052776;28;20204;-75
2023/09/13 09:19:44;;;;;;;28.30;6.13;;;28.70;57.50;;;;;;5057045;28;20235;-75
2023/09/13 09:22:12;;;;;;;46.93;7.47;;;28.70;57.50;;;;;;5045331;28;20214;-74
2023/09/13 09:24:41;;;;;;;21.07;5.13;;;28.70;57.50;;;;;;5045207;28;20333;-77
2023/09/13 09:27:08;;;;;;;34.93;6.23;;;28.70;57.40;;;;;;5046995;28;20295;-76
2023/09/13 09:29:39;;;;;;;41.30;7.10;;;28.80;57.40;;;;;;5063541;28;20291;-75
2023/09/13 09:32:08;;;;;;;43.33;7.07;;;28.80;57.30;;;;;;5061913;28;20981;-73
2023/09/13 09:34:38;;;;;;;22.77;5.90;;;28.70;57.30;;;;;;5064784;28;20204;-74
2023/09/13 09:37:07;;;;;;;25.83;6.10;;;28.70;57.20;;;;;;5058695;28;20191;-76
2023/09/13 09:39:40;;;;;;;27.13;6.07;;;28.80;57.30;;;;;;5074586;28;20210;-73
2023/09/13 09:42:07;;;;;;;20.23;5.07;;;28.80;57.20;;;;;;5045206;28;20204;-74
2023/09/13 09:44:34;;;;;;;22.23;5.60;;;28.80;57.20;;;;;;5051163;28;20971;-74
2023/09/13 09:47:01;;;;;;;48.73;7.53;;;28.80;57.20;;;;;;5063541;28;20199;-76
2023/09/13 09:49:28;;;;;;;26.77;5.43;;;28.80;57.20;;;;;;5062920;28;20247;-75
2023/09/13 09:51:55;;;;;;;22.30;5.60;;;28.80;57.20;;;;;;5063897;28;20294;-76
2023/09/13 09:54:22;;;;;;;44.70;7.57;;;28.80;57.10;;;;;;5057868;28;20207;-74
2023/09/13 09:56:53;;;;;;;24.90;5.87;;;28.80;57.10;;;;;;5047013;28;20276;-75
2023/09/13 09:59:20;;;;;;;30.00;6.47;;;28.80;57.10;;;;;;5050263;28;20208;-72
2023/09/13 10:01:56;;;;;;;36.08;7.15;;;28.80;57.10;;;;;;5050831;28;20513;-74
2023/09/13 10:04:23;;;;;;;22.23;5.70;;;28.70;58.00;;;;;;5044336;28;20720;-71
2023/09/13 10:06:59;;;;;;;20.43;5.07;;;28.70;57.50;;;;;;5045255;28;20235;-70
2023/09/13 10:09:37;;;;;;;27.60;5.63;;;28.80;57.40;;;;;;5044299;28;20652;-73
2023/09/13 10:12:07;;;;;;;20.97;5.33;;;28.80;57.20;;;;;;5062061;28;20207;-73
2023/09/13 10:14:34;;;;;;;32.83;6.93;;;28.90;57.20;;;;;;5059345;28;20223;-71
2023/09/13 10:17:03;;;;;;;19.13;5.50;;;28.90;57.10;;;;;;5051554;28;20208;-70
2023/09/13 10:19:30;;;;;;;22.20;5.63;;;28.90;57.00;;;;;;5037424;28;20211;-68
2023/09/13 10:21:58;;;;;;;21.53;5.40;;;28.90;56.90;;;;;;5033346;28;20240;-74
2023/09/13 10:24:27;;;;;;;21.20;5.67;;;28.90;57.00;;;;;;5031009;28;20307;-79
2023/09/13 10:26:56;;;;;;;21.97;5.50;;;29.00;57.00;;;;;;5037156;28;20669;-77
2023/09/13 10:29:32;;;;;;;15.10;4.60;;;29.00;57.00;;;;;;5033470;28;20243;-73
2023/09/13 10:32:02;;;;;;;17.50;5.33;;;29.00;56.90;;;;;;5040672;28;20210;-77
2023/09/13 10:34:34;;;;;;;21.00;5.37;;;29.00;57.50;;;;;;5049615;28;20196;-75
2023/09/13 10:37:09;;;;;;;32.50;7.53;;;28.90;56.90;;;;;;5047024;28;20207;-71
2023/09/13 10:39:43;;;;;;;24.43;6.00;;;29.00;56.90;;;;;;5050771;28;20288;-73
2023/09/13 10:42:11;;;;;;;37.47;7.00;;;28.90;56.80;;;;;;5040368;28;20196;-76
2023/09/13 10:44:39;;;;;;;30.80;6.90;;;28.90;56.90;;;;;;5042629;28;20232;-74
2023/09/13 10:47:08;;;;;;;41.37;7.33;;;28.90;56.90;;;;;;5030485;28;20350;-81
2023/09/13 10:49:37;;;;;;;21.87;6.10;;;28.90;56.80;;;;;;5040004;28;20270;-74
2023/09/13 10:52:06;;;;;;;26.30;5.93;;;29.00;56.90;;;;;;5040596;28;20289;-74
2023/09/13 10:54:33;;;;;;;26.97;6.20;;;28.90;56.80;;;;;;5039153;28;20203;-73
2023/09/13 10:57:02;;;;;;;17.40;5.17;;;28.90;56.80;;;;;;5041830;28;20279;-73
2023/09/13 10:59:31;;;;;;;25.37;5.67;;;29.00;56.90;;;;;;5033446;28;20338;-74
2023/09/13 11:02:04;;;;;;;21.23;5.30;;;28.90;56.80;;;;;;5032648;28;20822;-73
2023/09/13 11:04:31;;;;;;;35.00;6.63;;;28.90;56.80;;;;;;5046175;28;20235;-73
2023/09/13 11:06:58;;;;;;;44.57;7.70;;;28.90;56.80;;;;;;5032973;28;20212;-73
2023/09/13 11:09:27;;;;;;;31.33;6.30;;;28.90;56.80;;;;;;5032470;28;20207;-73
2023/09/13 11:11:57;;;;;;;26.23;5.53;;;28.90;56.70;;;;;;5029805;28;20287;-72
2023/09/13 11:14:24;;;;;;;50.10;8.20;;;28.90;56.80;;;;;;5030375;28;20204;-73
2023/09/13 11:16:51;;;;;;;23.87;5.50;;;28.90;56.80;;;;;;5034985;28;20228;-73
2023/09/13 11:19:26;;;;;;;22.53;5.70;;;28.90;56.70;;;;;;5036801;28;20208;-72
2023/09/13 11:22:00;;;;;;;24.40;6.10;;;28.90;56.70;;;;;;5036711;28;20279;-74
2023/09/13 11:24:38;;;;;;;30.07;6.33;;;28.80;56.70;;;;;;5035990;28;20213;-76
2023/09/13 11:27:16;;;;;;;23.20;5.90;;;28.80;56.60;;;;;;5034847;28;20751;-73
2023/09/13 11:29:45;;;;;;;24.67;6.33;;;28.80;56.60;;;;;;5032920;28;20299;-75
2023/09/13 11:32:19;;;;;;;32.57;7.00;;;28.80;56.60;;;;;;5043203;28;20214;-72
2023/09/13 11:34:55;;;;;;;24.13;6.00;;;28.80;56.60;;;;;;5036540;28;20281;-74
2023/09/13 11:37:24;;;;;;;23.60;5.93;;;28.80;56.60;;;;;;5040477;28;20196;-75
2023/09/13 11:39:53;;;;;;;27.27;5.93;;;28.80;56.70;;;;;;5032508;28;20288;-74
2023/09/13 11:42:27;;;;;;;20.40;5.60;;;28.80;56.60;;;;;;5033517;28;20196;-73
2023/09/13 11:44:55;;;;;;;26.70;5.80;;;28.80;56.70;;;;;;5043783;28;20254;-73
2023/09/13 11:47:23;;;;;;;39.27;7.20;;;28.80;56.60;;;;;;5032394;28;20226;-75
2023/09/13 11:49:54;;;;;;;22.23;5.67;;;28.80;56.60;;;;;;5045046;28;20228;-75
2023/09/13 11:52:22;;;;;;;28.57;6.53;;;28.80;56.60;;;;;;5047417;28;20257;-73
2023/09/13 11:54:54;;;;;;;38.03;6.90;;;28.80;56.60;;;;;;5030775;28;20764;-73
2023/09/13 11:57:22;;;;;;;42.60;7.13;;;28.80;56.60;;;;;;5046577;28;20200;-73
2023/09/13 11:59:53;;;;;;;26.87;6.03;;;28.70;56.50;;;;;;5031857;28;20200;-73
2023/09/13 12:02:20;;;;;;;33.80;6.97;;;28.70;56.50;;;;;;5030683;28;20200;-74
2023/09/13 12:04:50;;;;;;;24.63;5.93;;;28.80;56.60;;;;;;5042662;28;20260;-74
2023/09/13 12:07:19;;;;;;;24.43;6.10;;;28.80;56.60;;;;;;5031292;28;20200;-74
2023/09/13 12:09:56;;;;;;;19.97;5.67;;;28.80;56.60;;;;;;5028786;28;20201;-74
2023/09/13 12:12:23;;;;;;;22.47;5.90;;;28.70;56.40;;;;;;5030044;28;20200;-74
2023/09/13 12:14:51;;;;;;;35.53;6.63;;;28.70;56.50;;;;;;5028250;28;20570;-74
2023/09/13 12:17:18;;;;;;;23.77;5.73;;;28.70;56.50;;;;;;5040518;28;20244;-73
2023/09/13 12:19:46;;;;;;;21.20;5.10;;;28.70;56.50;;;;;;5028395;28;20263;-74
2023/09/13 12:22:17;;;;;;;26.60;6.88;;;28.70;56.50;;;;;;5030018;28;20446;-79
2023/09/13 12:24:52;;;;;;;30.20;6.03;;;28.60;56.50;;;;;;5036144;28;20723;-72
2023/09/13 12:27:19;;;;;;;40.67;7.33;;;28.60;56.60;;;;;;5045380;28;20211;-75
2023/09/13 12:29:46;;;;;;;23.97;5.97;;;28.70;56.60;;;;;;5036916;28;20291;-75
2023/09/13 12:32:14;;;;;;;15.93;5.17;;;28.60;56.50;;;;;;5039909;28;20751;-75
2023/09/13 12:34:41;;;;;;;15.00;4.63;;;28.70;56.50;;;;;;5047504;28;20214;-74
2023/09/13 12:37:08;;;;;;;31.03;6.43;;;28.70;56.50;;;;;;5043856;28;20204;-75
2023/09/13 12:39:37;;;;;;;29.57;6.40;;;28.70;56.50;;;;;;5047707;28;20251;-75
2023/09/13 12:42:08;;;;;;;18.40;5.73;;;28.70;56.30;;;;;;5042260;28;20312;-75
2023/09/13 12:44:36;;;;;;;27.43;6.23;;;28.70;56.40;;;;;;5052822;28;20220;-76
2023/09/13 12:47:04;;;;;;;25.10;5.90;;;28.80;56.40;;;;;;5049620;28;20307;-74
2023/09/13 12:49:31;;;;;;;17.50;5.30;;;28.70;56.40;;;;;;5041811;28;20211;-75